createdAt,value
2022-09-14T00:02:25.263Z,14.77
2022-09-14T00:04:55.844Z,14.72
2022-09-14T00:07:26.613Z,14.76
2022-09-14T00:09:57.096Z,14.84
2022-09-14T00:12:28.307Z,14.72
2022-09-14T00:14:58.791Z,14.94
2022-09-14T00:17:29.210Z,14.74
2022-09-14T00:19:59.695Z,14.75
2022-09-14T00:22:31.122Z,14.71
2022-09-14T00:25:01.533Z,14.72
2022-09-14T00:27:34.318Z,14.70
2022-09-14T00:30:06.318Z,14.60
2022-09-14T00:32:36.737Z,14.54
2022-09-14T00:35:09.512Z,14.50
2022-09-14T00:37:39.929Z,14.40
2022-09-14T00:40:12.547Z,14.38
2022-09-14T00:42:43.119Z,14.33
2022-09-14T00:45:16.939Z,14.33
2022-09-14T00:47:50.619Z,14.31
2022-09-14T00:50:21.836Z,14.34
2022-09-14T00:52:52.392Z,14.30
2022-09-14T00:55:24.119Z,14.29
2022-09-14T00:57:55.408Z,14.23
2022-09-14T01:00:28.865Z,14.30
2022-09-14T01:03:00.119Z,14.26
2022-09-14T01:05:48.642Z,14.26
2022-09-14T01:08:25.184Z,14.31
2022-09-14T01:11:16.564Z,14.30
2022-09-14T01:13:52.682Z,14.24
2022-09-14T01:16:35.182Z,14.28
2022-09-14T01:19:08.726Z,14.27
2022-09-14T01:21:44.859Z,14.24
2022-09-14T01:24:27.479Z,14.17
2022-09-14T01:27:03.886Z,14.14
2022-09-14T01:29:48.721Z,14.14
2022-09-14T01:32:25.252Z,14.12
2022-09-14T01:34:58.744Z,14.08
2022-09-14T01:37:32.193Z,14.09
2022-09-14T01:40:14.753Z,14.14
2022-09-14T01:42:49.108Z,14.12
2022-09-14T01:45:21.614Z,14.09
2022-09-14T01:47:55.309Z,14.18
2022-09-14T01:50:33.995Z,14.06
2022-09-14T01:53:10.408Z,14.03
2022-09-14T01:55:46.985Z,13.98
2022-09-14T01:58:26.277Z,14.07
2022-09-14T02:00:59.460Z,14.06
2022-09-14T02:03:38.791Z,14.03
2022-09-14T02:06:18.493Z,13.96
2022-09-14T02:08:49.447Z,13.99
2022-09-14T02:11:19.987Z,13.93
2022-09-14T02:13:50.845Z,14.08
2022-09-14T02:16:23.155Z,14.08
2022-09-14T02:18:54.125Z,14.02
2022-09-14T02:21:30.515Z,13.99
2022-09-14T02:24:02.173Z,14.07
2022-09-14T02:26:33.218Z,13.98
2022-09-14T02:29:04.922Z,13.98
2022-09-14T02:32:07.371Z,13.90
2022-09-14T02:34:53.187Z,13.96
2022-09-14T02:37:46.185Z,13.98
2022-09-14T02:40:28.775Z,13.90
2022-09-14T02:43:29.373Z,13.84
2022-09-14T02:46:05.788Z,13.87
2022-09-14T02:48:39.251Z,13.92
2022-09-14T02:51:31.148Z,13.80
2022-09-14T02:54:13.509Z,13.80
2022-09-14T02:56:45.009Z,13.72
2022-09-14T02:59:15.421Z,13.72
2022-09-14T03:01:46.180Z,13.76
2022-09-14T03:04:16.708Z,13.72
2022-09-14T03:06:47.158Z,13.85
2022-09-14T03:09:17.603Z,13.70
2022-09-14T03:11:48.081Z,13.70
2022-09-14T03:14:18.576Z,13.68
2022-09-14T03:16:49.008Z,13.69
2022-09-14T03:19:19.659Z,13.67
2022-09-14T03:21:50.243Z,13.68
2022-09-14T03:24:20.899Z,13.77
2022-09-14T03:26:52.252Z,13.64
2022-09-14T03:29:22.825Z,13.56
2022-09-14T03:31:53.436Z,13.62
2022-09-14T03:34:23.959Z,13.62
2022-09-14T03:36:54.396Z,13.68
2022-09-14T03:39:24.814Z,13.70
2022-09-14T03:41:55.678Z,13.64
2022-09-14T03:44:26.100Z,13.56
2022-09-14T03:46:56.637Z,13.56
2022-09-14T03:49:27.304Z,13.59
2022-09-14T03:51:59.808Z,13.52
2022-09-14T03:54:30.208Z,13.50
2022-09-14T03:57:01.062Z,13.52
2022-09-14T03:59:31.389Z,13.66
2022-09-14T04:02:02.700Z,13.58
2022-09-14T04:04:33.219Z,13.58
2022-09-14T04:07:03.708Z,13.50
2022-09-14T04:09:34.180Z,13.48
2022-09-14T04:12:10.812Z,13.48
2022-09-14T04:14:41.188Z,13.55
2022-09-14T04:17:11.619Z,13.54
2022-09-14T04:19:42.215Z,13.55
2022-09-14T04:22:12.502Z,13.55
2022-09-14T04:24:42.950Z,13.42
2022-09-14T04:27:13.330Z,13.36
2022-09-14T04:29:44.034Z,13.48
2022-09-14T04:32:14.586Z,13.49
2022-09-14T04:34:45.036Z,13.44
2022-09-14T04:37:15.376Z,13.46
2022-09-14T04:39:45.877Z,13.45
2022-09-14T04:42:16.310Z,13.55
2022-09-14T04:44:46.762Z,13.45
2022-09-14T04:47:17.335Z,13.48
2022-09-14T04:49:47.780Z,13.40
2022-09-14T04:52:18.120Z,13.65
2022-09-14T04:54:48.449Z,13.46
2022-09-14T04:57:18.851Z,13.48
2022-09-14T04:59:49.258Z,13.48
2022-09-14T05:02:19.721Z,13.40
2022-09-14T05:04:50.739Z,13.47
2022-09-14T05:07:21.150Z,13.50
2022-09-14T05:09:51.517Z,13.56
2022-09-14T05:12:22.083Z,13.56
2022-09-14T05:14:52.391Z,13.46
2022-09-14T05:17:22.734Z,13.47
2022-09-14T05:19:53.143Z,13.46
2022-09-14T05:22:23.725Z,13.53
2022-09-14T05:24:54.132Z,13.56
2022-09-14T05:27:24.640Z,13.47
2022-09-14T05:29:55.009Z,13.58
2022-09-14T05:32:25.338Z,13.52
2022-09-14T05:34:56.088Z,13.51
2022-09-14T05:37:26.629Z,13.50
2022-09-14T05:39:57.137Z,13.66
2022-09-14T05:42:27.556Z,13.56
2022-09-14T05:44:57.894Z,13.55
2022-09-14T05:47:30.878Z,13.62
2022-09-14T05:50:04.301Z,13.58
2022-09-14T05:52:34.795Z,13.60
2022-09-14T05:55:05.500Z,13.67
2022-09-14T05:57:35.854Z,13.69
2022-09-14T06:00:07.204Z,13.70
2022-09-14T06:02:37.644Z,13.78
2022-09-14T06:05:08.664Z,13.80
2022-09-14T06:07:39.091Z,13.78
2022-09-14T06:10:10.481Z,13.72
2022-09-14T06:12:40.887Z,13.67
2022-09-14T06:15:11.851Z,13.75
2022-09-14T06:17:42.225Z,13.76
2022-09-14T06:20:12.629Z,13.74
2022-09-14T06:22:43.025Z,13.77
2022-09-14T06:25:13.500Z,13.75
2022-09-14T06:27:43.808Z,13.84
2022-09-14T06:30:16.290Z,13.76
2022-09-14T06:32:46.657Z,13.76
2022-09-14T06:35:16.948Z,13.90
2022-09-14T06:37:47.327Z,13.84
2022-09-14T06:40:17.809Z,13.93
2022-09-14T06:42:48.438Z,13.96
2022-09-14T06:45:18.737Z,14.05
2022-09-14T06:47:49.153Z,14.14
2022-09-14T06:50:19.488Z,14.39
2022-09-14T06:52:49.880Z,14.42
2022-09-14T06:55:20.258Z,14.47
2022-09-14T06:57:50.653Z,14.51
2022-09-14T07:00:21.518Z,14.57
2022-09-14T07:02:55.494Z,14.80
2022-09-14T07:05:24.210Z,14.84
2022-09-14T07:07:54.471Z,14.91
2022-09-14T07:10:27.069Z,14.99
2022-09-14T07:12:59.068Z,14.94
2022-09-14T07:15:29.515Z,14.88
2022-09-14T07:18:00.301Z,14.82
2022-09-14T07:20:30.703Z,14.76
2022-09-14T07:23:01.098Z,14.78
2022-09-14T07:25:31.485Z,14.81
2022-09-14T07:28:01.899Z,15.04
2022-09-14T07:30:33.939Z,15.11
2022-09-14T07:33:05.926Z,15.14
2022-09-14T07:35:36.303Z,15.24
2022-09-14T07:38:06.717Z,15.25
2022-09-14T07:40:37.151Z,15.45
2022-09-14T07:43:07.944Z,15.46
2022-09-14T07:45:39.441Z,15.61
2022-09-14T07:48:09.821Z,15.87
2022-09-14T07:50:40.172Z,16.10
2022-09-14T07:53:10.551Z,16.22
2022-09-14T07:55:41.781Z,16.26
2022-09-14T07:58:12.176Z,16.34
2022-09-14T08:00:42.594Z,16.38
2022-09-14T08:03:13.195Z,16.51
2022-09-14T08:05:43.575Z,16.62
2022-09-14T08:08:14.371Z,16.74
2022-09-14T08:10:45.023Z,16.72
2022-09-14T08:13:15.429Z,16.88
2022-09-14T08:15:45.876Z,16.88
2022-09-14T08:18:16.238Z,16.90
2022-09-14T08:20:46.734Z,16.95
2022-09-14T08:23:17.115Z,16.92
2022-09-14T08:25:47.607Z,16.94
2022-09-14T08:28:18.004Z,16.98
2022-09-14T08:30:48.490Z,17.02
2022-09-14T08:33:18.985Z,17.14
2022-09-14T08:35:58.168Z,17.31
2022-09-14T08:38:21.402Z,17.48
2022-09-14T08:40:51.779Z,17.70
2022-09-14T08:43:25.277Z,17.86
2022-09-14T08:45:59.164Z,18.00
2022-09-14T08:48:38.456Z,18.02
2022-09-14T08:51:09.393Z,17.89
2022-09-14T08:53:41.950Z,17.57
2022-09-14T08:56:27.667Z,17.49
2022-09-14T08:59:09.825Z,17.77
2022-09-14T09:01:49.460Z,17.68
2022-09-14T09:04:39.677Z,17.68
2022-09-14T09:07:25.101Z,17.22
2022-09-14T09:09:58.195Z,17.39
2022-09-14T09:12:49.734Z,17.30
2022-09-14T09:15:32.088Z,17.84
2022-09-14T09:18:11.664Z,17.64
2022-09-14T09:20:46.035Z,17.66
2022-09-14T09:23:19.345Z,17.77
2022-09-14T09:25:58.090Z,17.78
2022-09-14T09:28:30.234Z,17.81
2022-09-14T09:31:04.886Z,18.08
2022-09-14T09:33:36.216Z,18.06
2022-09-14T09:36:08.346Z,18.25
2022-09-14T09:38:39.027Z,18.29
2022-09-14T09:41:27.597Z,18.33
2022-09-14T09:44:12.547Z,18.45
2022-09-14T09:47:01.447Z,18.69
2022-09-14T09:49:38.392Z,18.57
2022-09-14T09:52:16.864Z,18.60
2022-09-14T09:54:56.615Z,18.57
2022-09-14T09:57:37.892Z,18.61
2022-09-14T10:00:26.664Z,18.84
2022-09-14T10:02:57.540Z,19.03
2022-09-14T10:05:32.388Z,19.17
2022-09-14T10:08:09.368Z,18.94
2022-09-14T10:10:40.321Z,18.83
2022-09-14T10:13:36.588Z,18.71
2022-09-14T10:16:16.335Z,18.68
2022-09-14T10:18:49.707Z,18.90
2022-09-14T10:21:22.112Z,19.04
2022-09-14T10:24:05.020Z,18.95
2022-09-14T10:26:38.839Z,18.80
2022-09-14T10:29:39.721Z,18.42
2022-09-14T10:32:17.738Z,18.70
2022-09-14T10:34:48.229Z,18.61
2022-09-14T10:37:25.505Z,18.66
2022-09-14T10:40:05.061Z,18.86
2022-09-14T10:42:47.091Z,19.15
2022-09-14T10:45:23.789Z,19.30
2022-09-14T10:48:08.988Z,19.49
2022-09-14T10:50:54.387Z,20.06
2022-09-14T10:53:36.959Z,20.21
2022-09-14T10:56:22.211Z,20.42
2022-09-14T10:59:01.965Z,20.75
2022-09-14T11:01:41.452Z,20.66
2022-09-14T11:04:40.783Z,20.87
2022-09-14T11:07:37.211Z,20.39
2022-09-14T11:10:22.653Z,20.10
2022-09-14T11:13:07.903Z,20.40
2022-09-14T11:16:03.981Z,20.36
2022-09-14T11:18:43.082Z,20.44
2022-09-14T11:21:19.046Z,20.25
2022-09-14T11:23:58.380Z,20.29
2022-09-14T11:26:43.435Z,20.14
2022-09-14T11:29:29.033Z,20.17
2022-09-14T11:32:21.445Z,20.27
2022-09-14T11:34:55.971Z,20.60
2022-09-14T11:37:29.646Z,20.88
2022-09-14T11:40:32.079Z,20.70
2022-09-14T11:43:05.777Z,20.80
2022-09-14T11:45:48.539Z,20.78
2022-09-14T11:48:42.721Z,20.78
2022-09-14T11:51:15.266Z,22.18
2022-09-14T11:53:46.675Z,22.80
2022-09-14T11:56:26.865Z,22.92
2022-09-14T11:59:07.482Z,22.21
2022-09-14T12:01:39.949Z,21.75
2022-09-14T12:04:16.982Z,21.08
2022-09-14T12:06:54.534Z,20.76
2022-09-14T12:09:28.008Z,20.76
2022-09-14T12:11:59.704Z,20.89
2022-09-14T12:14:39.314Z,21.15
2022-09-14T12:17:41.259Z,21.08
2022-09-14T12:20:00.397Z,20.87
2022-09-14T12:22:38.710Z,20.49
2022-09-14T12:25:14.909Z,20.03
2022-09-14T12:27:48.519Z,19.95
2022-09-14T12:30:42.759Z,19.77
2022-09-14T12:33:33.170Z,19.60
2022-09-14T12:36:12.252Z,19.40
2022-09-14T12:38:45.857Z,19.32
2022-09-14T12:41:22.056Z,19.38
2022-09-14T12:43:54.886Z,19.21
2022-09-14T12:46:28.405Z,19.02
2022-09-14T12:49:05.461Z,19.27
2022-09-14T12:51:41.737Z,19.40
2022-09-14T12:54:51.216Z,19.40
2022-09-14T12:57:33.094Z,19.72
2022-09-14T13:00:15.573Z,19.99
2022-09-14T13:02:58.137Z,20.06
2022-09-14T13:05:31.992Z,20.27
2022-09-14T13:08:04.082Z,20.14
2022-09-14T13:10:37.840Z,20.20
2022-09-14T13:13:11.284Z,20.05
2022-09-14T13:15:47.768Z,19.72
2022-09-14T13:18:21.428Z,19.58
2022-09-14T13:21:00.620Z,19.31
2022-09-14T13:23:34.037Z,19.05
2022-09-14T13:26:10.317Z,19.23
2022-09-14T13:28:43.985Z,19.26
2022-09-14T13:31:17.356Z,19.14
2022-09-14T13:33:50.322Z,19.19
2022-09-14T13:36:27.115Z,19.34
2022-09-14T13:39:01.146Z,19.45
2022-09-14T13:41:32.383Z,19.12
2022-09-14T13:44:03.023Z,18.98
2022-09-14T13:46:33.640Z,19.01
2022-09-14T13:49:05.859Z,18.98
2022-09-14T13:51:36.786Z,18.85
2022-09-14T13:54:28.840Z,18.90
2022-09-14T13:57:19.748Z,18.82
2022-09-14T14:00:21.654Z,18.90
2022-09-14T14:02:55.015Z,19.00
2022-09-14T14:05:34.459Z,18.94
2022-09-14T14:08:04.998Z,18.90
2022-09-14T14:10:38.413Z,18.94
2022-09-14T14:13:08.713Z,18.96
2022-09-14T14:15:44.116Z,18.98
2022-09-14T14:18:38.837Z,18.97
2022-09-14T14:21:32.435Z,18.97
2022-09-14T14:24:29.297Z,18.93
2022-09-14T14:26:59.723Z,18.96
2022-09-14T14:29:30.284Z,18.81
2022-09-14T14:32:00.808Z,18.86
2022-09-14T14:34:31.214Z,18.81
2022-09-14T14:37:03.140Z,18.69
2022-09-14T14:39:33.472Z,18.60
2022-09-14T14:42:04.674Z,18.54
2022-09-14T14:44:35.815Z,18.38
2022-09-14T14:47:07.176Z,18.37
2022-09-14T14:49:37.560Z,18.35
2022-09-14T14:52:07.982Z,18.58
2022-09-14T14:54:40.238Z,18.34
2022-09-14T14:57:10.954Z,18.38
2022-09-14T14:59:43.320Z,18.26
2022-09-14T15:02:13.647Z,18.26
2022-09-14T15:04:43.960Z,18.27
2022-09-14T15:07:14.363Z,18.18
2022-09-14T15:09:45.643Z,18.10
2022-09-14T15:12:16.146Z,18.24
2022-09-14T15:14:46.678Z,18.15
2022-09-14T15:17:17.327Z,18.16
2022-09-14T15:19:47.751Z,18.38
2022-09-14T15:22:18.115Z,18.19
2022-09-14T15:24:48.504Z,18.20
2022-09-14T15:27:18.897Z,18.13
2022-09-14T15:29:49.193Z,18.03
2022-09-14T15:32:19.878Z,18.00
2022-09-14T15:34:50.183Z,17.99
2022-09-14T15:37:20.633Z,18.08
2022-09-14T15:39:51.178Z,17.94
2022-09-14T15:42:21.688Z,17.87
2022-09-14T15:44:52.063Z,17.87
2022-09-14T15:47:22.538Z,17.84
2022-09-14T15:49:53.025Z,17.84
2022-09-14T15:52:23.388Z,17.81
2022-09-14T15:54:54.696Z,17.80
2022-09-14T15:57:25.089Z,17.78
2022-09-14T15:59:56.007Z,17.70
2022-09-14T16:02:26.824Z,17.74
2022-09-14T16:04:57.422Z,17.71
2022-09-14T16:07:29.586Z,17.63
2022-09-14T16:09:59.974Z,17.57
2022-09-14T16:12:30.411Z,17.59
2022-09-14T16:15:00.930Z,17.48
2022-09-14T16:17:31.429Z,17.51
2022-09-14T16:20:01.966Z,17.52
2022-09-14T16:22:33.621Z,17.46
2022-09-14T16:25:06.220Z,17.43
2022-09-14T16:27:36.688Z,17.40
2022-09-14T16:30:08.252Z,17.39
2022-09-14T16:32:38.659Z,17.34
2022-09-14T16:35:13.105Z,17.38
2022-09-14T16:37:43.969Z,17.28
2022-09-14T16:40:14.974Z,17.26
2022-09-14T16:42:53.834Z,17.30
2022-09-14T16:45:22.548Z,17.30
2022-09-14T16:47:53.140Z,17.18
2022-09-14T16:50:23.537Z,17.12
2022-09-14T16:52:53.937Z,17.10
2022-09-14T16:55:24.337Z,17.14
2022-09-14T16:57:54.659Z,17.16
2022-09-14T17:00:25.084Z,17.08
2022-09-14T17:02:55.474Z,17.08
2022-09-14T17:05:26.122Z,17.01
2022-09-14T17:07:56.527Z,17.01
2022-09-14T17:10:26.944Z,17.00
2022-09-14T17:12:57.468Z,16.96
2022-09-14T17:15:28.027Z,16.94
2022-09-14T17:17:58.868Z,16.89
2022-09-14T17:20:29.729Z,16.91
2022-09-14T17:23:00.115Z,16.86
2022-09-14T17:25:30.541Z,16.86
2022-09-14T17:28:00.887Z,16.77
2022-09-14T17:30:31.342Z,16.76
2022-09-14T17:33:01.714Z,16.74
2022-09-14T17:35:32.108Z,16.68
2022-09-14T17:38:02.795Z,16.63
2022-09-14T17:40:33.444Z,16.62
2022-09-14T17:43:03.874Z,16.69
2022-09-14T17:45:36.775Z,16.62
2022-09-14T17:48:08.545Z,16.70
2022-09-14T17:50:40.652Z,16.68
2022-09-14T17:53:10.990Z,16.65
2022-09-14T17:55:42.422Z,16.62
2022-09-14T17:58:16.414Z,16.60
2022-09-14T18:00:45.988Z,16.55
2022-09-14T18:03:16.605Z,16.62
2022-09-14T18:05:50.139Z,16.62
2022-09-14T18:08:20.510Z,16.60
2022-09-14T18:10:51.026Z,16.60
2022-09-14T18:13:21.412Z,16.62
2022-09-14T18:15:57.308Z,16.62
2022-09-14T18:18:27.673Z,16.54
2022-09-14T18:21:00.635Z,16.45
2022-09-14T18:23:31.781Z,16.44
2022-09-14T18:26:03.400Z,16.46
2022-09-14T18:28:34.884Z,16.42
2022-09-14T18:31:10.933Z,16.50
2022-09-14T18:33:43.006Z,16.54
2022-09-14T18:36:15.526Z,16.52
2022-09-14T18:38:48.397Z,16.47
2022-09-14T18:41:19.466Z,16.46
2022-09-14T18:43:52.205Z,16.41
2022-09-14T18:46:27.600Z,16.53
2022-09-14T18:48:57.852Z,16.48
2022-09-14T18:51:29.983Z,16.47
2022-09-14T18:54:03.582Z,16.50
2022-09-14T18:56:36.197Z,16.46
2022-09-14T18:59:09.457Z,16.47
2022-09-14T19:01:42.668Z,16.39
2022-09-14T19:04:13.229Z,16.37
2022-09-14T19:06:44.580Z,16.37
2022-09-14T19:09:15.306Z,16.34
2022-09-14T19:11:45.817Z,16.29
2022-09-14T19:14:17.510Z,16.29
2022-09-14T19:16:48.090Z,16.36
2022-09-14T19:19:18.514Z,16.36
2022-09-14T19:21:48.924Z,16.32
2022-09-14T19:24:19.824Z,16.30
2022-09-14T19:26:52.802Z,16.26
2022-09-14T19:29:24.511Z,16.34
2022-09-14T19:31:55.246Z,16.32
2022-09-14T19:34:27.730Z,16.23
2022-09-14T19:36:58.133Z,16.18
2022-09-14T19:39:28.507Z,16.14
2022-09-14T19:41:59.016Z,16.12
2022-09-14T19:44:29.427Z,16.07
2022-09-14T19:47:00.072Z,16.02
2022-09-14T19:49:30.411Z,16.02
2022-09-14T19:52:02.374Z,16.01
2022-09-14T19:54:32.936Z,15.97
2022-09-14T19:57:03.606Z,15.94
2022-09-14T19:59:33.916Z,15.89
2022-09-14T20:02:04.730Z,15.90
2022-09-14T20:04:35.246Z,15.98
2022-09-14T20:07:07.497Z,15.91
2022-09-14T20:09:38.356Z,15.92
2022-09-14T20:12:08.883Z,15.92
2022-09-14T20:14:39.252Z,15.88
2022-09-14T20:17:09.693Z,15.89
2022-09-14T20:19:40.224Z,15.86
2022-09-14T20:22:14.841Z,15.84
2022-09-14T20:24:42.658Z,15.82
2022-09-14T20:27:13.162Z,15.79
2022-09-14T20:29:43.528Z,15.78
2022-09-14T20:32:16.324Z,15.78
2022-09-14T20:34:45.919Z,15.74
2022-09-14T20:37:16.533Z,15.75
2022-09-14T20:39:48.046Z,15.82
2022-09-14T20:42:18.480Z,15.74
2022-09-14T20:44:48.869Z,15.80
2022-09-14T20:47:19.487Z,15.70
2022-09-14T20:49:49.805Z,15.69
2022-09-14T20:52:20.498Z,15.74
2022-09-14T20:54:50.934Z,15.72
2022-09-14T20:57:21.610Z,15.75
2022-09-14T20:59:51.905Z,15.78
2022-09-14T21:02:22.326Z,15.66
2022-09-14T21:04:52.730Z,15.66
2022-09-14T21:07:23.278Z,15.62
2022-09-14T21:09:53.629Z,15.68
2022-09-14T21:12:24.043Z,15.75
2022-09-14T21:14:54.606Z,15.66
2022-09-14T21:17:25.419Z,15.64
2022-09-14T21:19:56.219Z,15.62
2022-09-14T21:22:27.475Z,15.62
2022-09-14T21:24:57.788Z,15.63
2022-09-14T21:27:28.277Z,15.54
2022-09-14T21:29:58.683Z,15.50
2022-09-14T21:32:29.023Z,15.46
2022-09-14T21:34:59.455Z,15.42
2022-09-14T21:37:30.024Z,15.50
2022-09-14T21:40:00.388Z,15.50
2022-09-14T21:42:31.104Z,15.42
2022-09-14T21:45:01.526Z,15.35
2022-09-14T21:47:31.905Z,15.54
2022-09-14T21:50:02.283Z,15.39
2022-09-14T21:52:32.681Z,15.36
2022-09-14T21:55:03.284Z,15.30
2022-09-14T21:57:33.709Z,15.34
2022-09-14T22:00:07.724Z,15.34
2022-09-14T22:02:38.425Z,15.38
2022-09-14T22:05:09.278Z,15.40
2022-09-14T22:07:41.613Z,15.35
2022-09-14T22:10:11.952Z,15.38
2022-09-14T22:12:42.280Z,15.34
2022-09-14T22:15:12.591Z,15.31
2022-09-14T22:17:43.013Z,15.36
2022-09-14T22:20:14.235Z,15.24
2022-09-14T22:22:45.011Z,15.30
2022-09-14T22:25:15.687Z,15.33
2022-09-14T22:27:46.558Z,15.34
2022-09-14T22:30:16.966Z,15.24
2022-09-14T22:32:47.451Z,15.21
2022-09-14T22:35:18.171Z,15.20
2022-09-14T22:37:49.635Z,15.23
2022-09-14T22:40:20.058Z,15.22
2022-09-14T22:42:50.495Z,15.10
2022-09-14T22:45:20.799Z,15.11
2022-09-14T22:47:53.351Z,15.09
2022-09-14T22:50:23.755Z,15.03
2022-09-14T22:52:54.183Z,15.19
2022-09-14T22:58:17.303Z,15.02
2022-09-14T23:00:48.503Z,15.00
2022-09-14T23:03:19.723Z,14.92
2022-09-14T23:05:52.326Z,14.89
2022-09-14T23:08:23.533Z,14.85
2022-09-14T23:10:54.729Z,14.82
2022-09-14T23:13:25.087Z,14.81
2022-09-14T23:15:56.557Z,14.93
2022-09-14T23:18:27.294Z,14.78
2022-09-14T23:20:57.587Z,14.85
2022-09-14T23:23:29.580Z,14.70
2022-09-14T23:26:05.635Z,14.71
2022-09-14T23:28:36.794Z,14.68
2022-09-14T23:31:07.662Z,14.64
2022-09-14T23:33:38.350Z,14.68
2022-09-14T23:36:09.053Z,14.67
2022-09-14T23:38:39.402Z,14.62
2022-09-14T23:41:09.840Z,14.61
2022-09-14T23:43:40.164Z,14.67
2022-09-14T23:46:10.740Z,14.60
2022-09-14T23:48:41.624Z,14.57
2022-09-14T23:51:12.972Z,14.53
2022-09-14T23:53:43.954Z,14.58
2022-09-14T23:56:14.847Z,14.62
2022-09-14T23:58:45.709Z,14.81
